Time;durP1;ratioP1;P1;durP2;ratioP2;P2;SDS_P1;SDS_P2;PMS_P1;PMS_P2;Temp;Humidity;BMP_temperature;BMP_pressure;BME280_temperature;BME280_humidity;BME280_pressure;Samples;Min_cycle;Max_cycle;Signal;HPM_P1;HPM_P2
2020/12/07 00:00:25;;;;;;;5.43;4.20;;;17.10;47.80;;;;;;5081004;28;20127;-54
2020/12/07 00:02:52;;;;;;;6.10;5.05;;;17.10;47.90;;;;;;5079733;28;20044;-50
2020/12/07 00:05:19;;;;;;;3.80;3.28;;;17.10;47.30;;;;;;5084469;28;20151;-50
2020/12/07 00:07:45;;;;;;;8.00;5.72;;;17.10;47.70;;;;;;5078379;28;20052;-55
2020/12/07 00:10:13;;;;;;;9.05;5.63;;;17.10;47.30;;;;;;5078868;28;20032;-51
2020/12/07 00:12:40;;;;;;;4.18;3.72;;;17.20;47.00;;;;;;5078172;28;20097;-53
2020/12/07 00:15:07;;;;;;;7.43;5.20;;;17.20;47.30;;;;;;5074719;28;20048;-55
2020/12/07 00:17:34;;;;;;;3.63;3.08;;;17.20;46.90;;;;;;5081897;28;20416;-55
2020/12/07 00:20:01;;;;;;;4.45;4.05;;;17.20;47.30;;;;;;5085289;28;20135;-55
2020/12/07 00:22:29;;;;;;;6.93;4.75;;;17.20;47.30;;;;;;5084360;28;20044;-53
2020/12/07 00:24:57;;;;;;;3.95;3.55;;;17.20;46.70;;;;;;5079251;28;20119;-52
2020/12/07 00:27:25;;;;;;;4.32;3.38;;;17.20;47.10;;;;;;5080326;28;20041;-53
2020/12/07 00:29:52;;;;;;;4.90;3.80;;;17.20;47.30;;;;;;5080305;28;20127;-51
2020/12/07 00:32:19;;;;;;;5.95;3.75;;;17.30;47.10;;;;;;5082436;28;20048;-51
2020/12/07 00:34:46;;;;;;;5.28;4.38;;;17.30;47.40;;;;;;5081179;28;20051;-50
2020/12/07 00:37:13;;;;;;;6.50;3.42;;;17.30;47.30;;;;;;5084476;28;20075;-53
2020/12/07 00:39:40;;;;;;;9.70;4.10;;;17.30;47.50;;;;;;5081549;28;20060;-51
2020/12/07 00:42:09;;;;;;;8.15;4.20;;;17.30;47.60;;;;;;5085411;28;20087;-53
2020/12/07 00:44:37;;;;;;;4.05;3.65;;;17.30;47.70;;;;;;5085246;28;20477;-51
2020/12/07 00:47:04;;;;;;;10.63;4.05;;;17.30;47.80;;;;;;5084051;28;20495;-48
2020/12/07 00:49:31;;;;;;;4.85;3.85;;;17.30;47.80;;;;;;5085049;28;20044;-50
2020/12/07 00:51:58;;;;;;;6.88;3.55;;;17.30;48.00;;;;;;5083876;28;20143;-54
2020/12/07 00:54:24;;;;;;;4.55;3.65;;;17.30;48.00;;;;;;5064240;28;20102;-56
2020/12/07 00:56:53;;;;;;;6.95;3.67;;;17.40;48.10;;;;;;5066448;28;20129;-50
2020/12/07 00:59:21;;;;;;;6.68;3.85;;;17.30;48.30;;;;;;5068662;28;20036;-53
2020/12/07 01:01:49;;;;;;;4.55;3.78;;;17.40;48.30;;;;;;5068002;28;20415;-49
2020/12/07 01:04:16;;;;;;;12.93;3.38;;;17.40;49.00;;;;;;5067821;28;20324;-48
2020/12/07 01:06:45;;;;;;;5.05;3.47;;;17.40;48.50;;;;;;5080965;28;20808;-52
2020/12/07 01:09:15;;;;;;;4.15;2.95;;;17.40;49.10;;;;;;5079674;28;20089;-53
2020/12/07 01:11:43;;;;;;;5.13;3.00;;;17.40;48.60;;;;;;5085059;28;20040;-52
2020/12/07 01:14:10;;;;;;;2.33;2.10;;;17.40;48.50;;;;;;5084835;28;20040;-51
2020/12/07 01:16:37;;;;;;;4.25;3.58;;;17.40;48.50;;;;;;5084171;28;20071;-52
2020/12/07 01:19:06;;;;;;;5.80;3.65;;;17.40;48.50;;;;;;5080527;28;20050;-50
2020/12/07 01:21:33;;;;;;;4.65;3.17;;;17.50;48.40;;;;;;5067003;28;20044;-54
2020/12/07 01:24:00;;;;;;;5.78;3.78;;;17.40;48.30;;;;;;5063517;28;20162;-51
2020/12/07 01:26:30;;;;;;;7.97;3.28;;;17.50;48.20;;;;;;5070086;28;20400;-52
2020/12/07 01:28:57;;;;;;;4.45;3.63;;;17.50;48.20;;;;;;5061202;28;20037;-52
2020/12/07 01:31:24;;;;;;;4.15;3.28;;;17.50;48.10;;;;;;5062653;28;20040;-52
2020/12/07 01:33:51;;;;;;;4.80;3.58;;;17.50;47.90;;;;;;5066674;28;20048;-53
2020/12/07 01:36:19;;;;;;;3.55;3.20;;;17.50;47.80;;;;;;5068878;28;20040;-52
2020/12/07 01:38:46;;;;;;;4.63;3.65;;;17.50;47.60;;;;;;5065971;28;20051;-50
2020/12/07 01:41:13;;;;;;;4.45;3.97;;;17.50;47.50;;;;;;5070064;28;20480;-49
2020/12/07 01:43:41;;;;;;;5.13;3.92;;;17.50;47.50;;;;;;5070602;28;20044;-51
2020/12/07 01:46:09;;;;;;;6.07;3.95;;;17.50;47.40;;;;;;5064762;28;20051;-51
2020/12/07 01:48:37;;;;;;;6.57;4.80;;;17.50;47.30;;;;;;5070535;28;20522;-52
2020/12/07 01:51:09;;;;;;;7.55;4.28;;;17.50;47.30;;;;;;5052066;28;20044;-50
2020/12/07 01:53:37;;;;;;;5.38;4.05;;;17.50;47.30;;;;;;5068447;28;20862;-50
2020/12/07 01:56:09;;;;;;;6.28;4.97;;;17.50;47.30;;;;;;5065543;28;20541;-52
2020/12/07 01:58:36;;;;;;;3.85;3.17;;;17.60;47.30;;;;;;5067121;28;20598;-51
2020/12/07 02:01:03;;;;;;;5.78;3.70;;;17.50;47.30;;;;;;5070446;28;20052;-50
2020/12/07 02:03:30;;;;;;;6.00;4.80;;;17.50;47.30;;;;;;5083357;28;20512;-57
2020/12/07 02:05:57;;;;;;;4.88;4.47;;;17.50;47.20;;;;;;5069347;28;20068;-56
2020/12/07 02:08:23;;;;;;;5.45;4.78;;;17.50;47.30;;;;;;5085313;28;20044;-49
2020/12/07 02:11:04;;;;;;;6.68;4.65;;;17.50;47.40;;;;;;5063303;28;20585;-51
2020/12/07 02:13:34;;;;;;;5.65;4.40;;;17.50;47.50;;;;;;5082204;28;20036;-53
2020/12/07 02:16:01;;;;;;;5.40;3.97;;;17.50;47.60;;;;;;5062555;28;20528;-49
2020/12/07 02:18:36;;;;;;;5.20;4.18;;;17.50;47.60;;;;;;5066838;28;20127;-53
2020/12/07 02:21:04;;;;;;;6.60;4.10;;;17.50;47.50;;;;;;5081679;28;20466;-49
2020/12/07 02:24:03;;;;;;;4.75;4.25;;;17.50;47.50;;;;;;5025224;28;20045;-54
2020/12/07 02:26:33;;;;;;;6.55;4.93;;;17.50;47.50;;;;;;5008679;28;20128;-51
2020/12/07 02:29:01;;;;;;;7.07;4.50;;;17.50;47.50;;;;;;5009952;28;20054;-51
2020/12/07 02:31:33;;;;;;;4.82;4.40;;;17.50;47.40;;;;;;5023470;28;20500;-53
2020/12/07 02:34:00;;;;;;;6.38;4.38;;;17.50;47.40;;;;;;5012566;28;20077;-51
2020/12/07 02:36:28;;;;;;;5.90;4.68;;;17.50;47.50;;;;;;5005883;28;20041;-49
2020/12/07 02:38:57;;;;;;;5.18;4.07;;;17.50;47.50;;;;;;5008761;28;20259;-51
2020/12/07 02:41:33;;;;;;;6.70;4.45;;;17.50;47.20;;;;;;5002990;28;20580;-48
2020/12/07 02:44:01;;;;;;;5.03;4.53;;;17.50;47.20;;;;;;5009466;28;20180;-50
2020/12/07 02:46:28;;;;;;;4.93;4.30;;;17.50;47.20;;;;;;5005935;28;20060;-50
2020/12/07 02:48:56;;;;;;;6.35;4.60;;;17.50;47.20;;;;;;5005502;28;20053;-52
2020/12/07 02:51:23;;;;;;;6.85;4.38;;;17.50;47.10;;;;;;5025308;28;20057;-52
2020/12/07 02:53:51;;;;;;;7.55;4.75;;;17.50;47.10;;;;;;5024862;28;20578;-54
2020/12/07 02:56:21;;;;;;;4.68;3.60;;;17.50;47.00;;;;;;5023935;28;20594;-51
2020/12/07 02:58:51;;;;;;;5.28;4.35;;;17.40;46.90;;;;;;5014852;28;20130;-49
2020/12/07 03:01:18;;;;;;;4.82;3.85;;;17.40;46.90;;;;;;5045921;28;20044;-54
2020/12/07 03:03:45;;;;;;;6.22;3.65;;;17.40;46.90;;;;;;5055267;28;20052;-50
2020/12/07 03:06:12;;;;;;;5.70;4.13;;;17.40;46.90;;;;;;5069507;28;20047;-50
2020/12/07 03:08:39;;;;;;;4.95;4.18;;;17.40;46.90;;;;;;5063458;28;20036;-55
2020/12/07 03:11:09;;;;;;;5.93;4.68;;;17.40;46.90;;;;;;5063527;28;20388;-52
2020/12/07 03:13:38;;;;;;;4.25;3.85;;;17.40;46.90;;;;;;5082471;28;20132;-50
2020/12/07 03:16:05;;;;;;;7.13;5.03;;;17.40;46.90;;;;;;5068940;28;20039;-53
2020/12/07 03:18:34;;;;;;;5.10;4.60;;;17.40;46.80;;;;;;5068893;28;20090;-52
2020/12/07 03:21:06;;;;;;;6.22;5.30;;;17.40;46.70;;;;;;5068579;28;20504;-51
2020/12/07 03:23:34;;;;;;;4.68;4.28;;;17.40;46.80;;;;;;5063218;28;20048;-53
2020/12/07 03:26:09;;;;;;;4.50;4.13;;;17.40;47.10;;;;;;5068628;28;20040;-53
2020/12/07 03:28:37;;;;;;;5.63;4.25;;;17.40;47.10;;;;;;5067583;28;20068;-52
2020/12/07 03:31:05;;;;;;;6.38;4.72;;;17.40;47.00;;;;;;5068957;28;20048;-53
2020/12/07 03:33:31;;;;;;;6.38;3.58;;;17.40;47.00;;;;;;5080024;28;20508;-49
2020/12/07 03:35:58;;;;;;;6.50;4.30;;;17.40;47.00;;;;;;5064222;28;20048;-52
2020/12/07 03:38:26;;;;;;;4.03;3.67;;;17.40;47.00;;;;;;5067219;28;20044;-52
2020/12/07 03:40:53;;;;;;;5.55;4.25;;;17.30;47.00;;;;;;5060191;28;20046;-53
2020/12/07 03:43:32;;;;;;;5.82;4.80;;;17.30;47.00;;;;;;5057578;28;20052;-52
2020/12/07 03:45:58;;;;;;;4.40;3.55;;;17.30;46.80;;;;;;5066448;28;20044;-54
2020/12/07 03:48:26;;;;;;;4.03;3.63;;;17.30;46.90;;;;;;5058352;28;20051;-53
2020/12/07 03:50:53;;;;;;;5.72;4.18;;;17.30;46.80;;;;;;5077651;28;20048;-56
2020/12/07 03:53:21;;;;;;;5.43;4.63;;;17.30;46.80;;;;;;5061483;28;20097;-55
2020/12/07 03:55:47;;;;;;;6.40;3.40;;;17.30;46.60;;;;;;5083479;28;20062;-53
2020/12/07 03:58:20;;;;;;;3.42;3.13;;;17.30;46.60;;;;;;5063481;28;20494;-50
2020/12/07 04:00:49;;;;;;;3.80;3.42;;;17.30;46.60;;;;;;5078118;28;20044;-50
2020/12/07 04:03:15;;;;;;;3.53;3.20;;;17.30;46.60;;;;;;5081303;28;20762;-51
2020/12/07 04:05:53;;;;;;;3.78;3.40;;;17.30;46.70;;;;;;5064356;28;20068;-50
2020/12/07 04:08:22;;;;;;;4.15;3.17;;;17.30;46.70;;;;;;5065941;28;20051;-49
2020/12/07 04:10:48;;;;;;;7.15;2.97;;;17.30;46.70;;;;;;5082193;28;20598;-51
2020/12/07 04:13:15;;;;;;;3.17;2.88;;;17.30;46.70;;;;;;5079973;28;20072;-51
2020/12/07 04:15:41;;;;;;;3.70;3.05;;;17.20;46.60;;;;;;5077042;28;20040;-51
2020/12/07 04:18:09;;;;;;;5.95;4.15;;;17.30;46.60;;;;;;5078814;28;20119;-53
2020/12/07 04:20:35;;;;;;;4.20;3.17;;;17.30;47.20;;;;;;5076800;28;20620;-54
2020/12/07 04:23:02;;;;;;;2.95;2.70;;;17.30;46.50;;;;;;5081575;28;20047;-51
2020/12/07 04:25:29;;;;;;;2.88;2.35;;;17.30;46.60;;;;;;5081349;28;20093;-58
2020/12/07 04:27:55;;;;;;;4.13;3.33;;;17.30;46.60;;;;;;5080136;28;20134;-51
2020/12/07 04:30:22;;;;;;;3.80;3.15;;;17.30;46.60;;;;;;5080848;28;20040;-53
2020/12/07 04:32:48;;;;;;;4.07;3.45;;;17.30;47.10;;;;;;5079369;28;20499;-49
2020/12/07 04:35:16;;;;;;;4.07;2.70;;;17.30;46.50;;;;;;5059221;28;20134;-54
2020/12/07 04:37:42;;;;;;;3.38;2.88;;;17.30;46.40;;;;;;5075626;28;20056;-55
2020/12/07 04:40:09;;;;;;;4.22;2.92;;;17.30;46.50;;;;;;5079522;28;20037;-51
2020/12/07 04:42:39;;;;;;;2.80;2.47;;;17.30;46.50;;;;;;5079784;28;20074;-51
2020/12/07 04:45:06;;;;;;;3.60;3.30;;;17.30;46.50;;;;;;5079239;28;20503;-50
2020/12/07 04:47:34;;;;;;;3.65;3.30;;;17.30;46.40;;;;;;5083886;28;20454;-50
2020/12/07 04:50:03;;;;;;;3.70;3.38;;;17.30;47.10;;;;;;5083571;28;20570;-48
2020/12/07 04:52:32;;;;;;;2.78;2.38;;;17.30;46.40;;;;;;5076096;28;20047;-48
2020/12/07 04:55:01;;;;;;;3.95;3.03;;;17.30;46.50;;;;;;5075881;28;20055;-51
2020/12/07 04:57:29;;;;;;;3.20;2.90;;;17.30;46.40;;;;;;5079263;28;20781;-51
2020/12/07 04:59:57;;;;;;;2.70;2.58;;;17.30;46.40;;;;;;5080620;28;20078;-52
2020/12/07 05:02:24;;;;;;;2.65;2.45;;;17.30;46.30;;;;;;5083070;28;20067;-51
2020/12/07 05:04:53;;;;;;;2.80;2.50;;;17.30;46.20;;;;;;5082743;28;20044;-48
2020/12/07 05:07:19;;;;;;;3.92;2.88;;;17.30;46.30;;;;;;5075797;28;20403;-50
2020/12/07 05:09:47;;;;;;;2.53;2.33;;;17.30;46.30;;;;;;5077563;28;20555;-53
2020/12/07 05:12:17;;;;;;;3.17;2.97;;;17.30;46.30;;;;;;5080521;28;20070;-49
2020/12/07 05:14:44;;;;;;;4.57;3.03;;;17.30;46.30;;;;;;5078850;28;20080;-51
2020/12/07 05:17:11;;;;;;;3.67;3.17;;;17.30;46.20;;;;;;5082010;28;20052;-50
2020/12/07 05:19:38;;;;;;;3.08;2.35;;;17.30;46.20;;;;;;5068233;28;20081;-51
2020/12/07 05:22:14;;;;;;;2.53;2.40;;;17.30;46.20;;;;;;5076900;28;20586;-52
2020/12/07 05:24:41;;;;;;;3.22;2.72;;;17.30;46.20;;;;;;5080652;28;20263;-48
2020/12/07 05:27:10;;;;;;;3.72;2.97;;;17.30;46.20;;;;;;5085081;28;20085;-52
2020/12/07 05:29:47;;;;;;;2.78;2.58;;;17.30;46.20;;;;;;5064364;28;20478;-48
2020/12/07 05:32:15;;;;;;;2.75;2.55;;;17.30;46.10;;;;;;5086020;28;20044;-52
2020/12/07 05:34:41;;;;;;;2.58;2.33;;;17.30;46.20;;;;;;5085669;28;20138;-48
2020/12/07 05:37:08;;;;;;;2.45;2.22;;;17.30;46.20;;;;;;5082559;28;20070;-52
2020/12/07 05:39:34;;;;;;;2.10;1.98;;;17.30;46.20;;;;;;5082780;28;20139;-48
2020/12/07 05:42:03;;;;;;;2.85;2.17;;;17.30;46.20;;;;;;5083181;28;20156;-49
2020/12/07 05:44:35;;;;;;;2.58;2.38;;;17.30;46.10;;;;;;5087032;28;20135;-48
2020/12/07 05:47:02;;;;;;;5.00;2.50;;;17.30;46.20;;;;;;5086382;28;20079;-49
2020/12/07 05:49:30;;;;;;;2.45;2.25;;;17.30;46.20;;;;;;5083810;28;20054;-54
2020/12/07 05:52:04;;;;;;;3.72;2.72;;;17.30;46.20;;;;;;5082322;28;20055;-50
2020/12/07 05:54:31;;;;;;;3.20;2.42;;;17.30;46.10;;;;;;5080432;28;20037;-53
2020/12/07 05:57:06;;;;;;;3.08;2.80;;;17.30;46.10;;;;;;5081882;28;20547;-53
2020/12/07 05:59:41;;;;;;;3.17;2.70;;;17.30;46.60;;;;;;5080464;28;20090;-55
2020/12/07 06:02:22;;;;;;;2.75;2.20;;;17.30;46.00;;;;;;5080674;28;20048;-49
2020/12/07 06:04:51;;;;;;;4.53;2.35;;;17.30;46.00;;;;;;5085788;28;20075;-52
2020/12/07 06:07:23;;;;;;;4.20;2.83;;;17.30;46.10;;;;;;5082247;28;20042;-53
2020/12/07 06:09:51;;;;;;;3.72;3.33;;;17.30;46.00;;;;;;5082124;28;20538;-51
2020/12/07 06:12:23;;;;;;;3.58;3.28;;;17.30;45.90;;;;;;5081567;28;20048;-51
2020/12/07 06:14:51;;;;;;;3.22;2.08;;;17.30;46.00;;;;;;5082291;28;20555;-48
2020/12/07 06:17:24;;;;;;;3.53;2.85;;;17.30;46.00;;;;;;5086539;28;20040;-56
2020/12/07 06:19:51;;;;;;;2.72;2.50;;;17.30;46.00;;;;;;5082999;28;20421;-49
2020/12/07 06:22:21;;;;;;;3.45;2.35;;;17.30;45.90;;;;;;5081593;28;20529;-52
2020/12/07 06:24:49;;;;;;;2.30;2.10;;;17.30;45.90;;;;;;5081816;28;20055;-51
2020/12/07 06:27:17;;;;;;;4.95;2.22;;;17.30;45.90;;;;;;5082834;28;20040;-52
2020/12/07 06:29:58;;;;;;;2.35;2.22;;;17.30;45.90;;;;;;5080816;28;20131;-49
2020/12/07 06:32:47;;;;;;;3.30;3.00;;;17.30;46.00;;;;;;5083680;28;20052;-54
2020/12/07 06:35:14;;;;;;;4.93;2.97;;;17.30;46.00;;;;;;5084297;28;20037;-53
2020/12/07 06:37:43;;;;;;;2.88;2.13;;;17.30;46.00;;;;;;5084864;28;20729;-54
2020/12/07 06:40:11;;;;;;;2.42;2.22;;;17.30;46.10;;;;;;5083896;28;20051;-56
2020/12/07 06:42:42;;;;;;;2.28;2.13;;;17.30;46.10;;;;;;5083631;28;20063;-53
2020/12/07 06:45:21;;;;;;;2.97;2.70;;;17.30;46.10;;;;;;5082015;28;20040;-53
2020/12/07 06:47:49;;;;;;;2.80;2.60;;;17.30;46.10;;;;;;5082201;28;20055;-51
2020/12/07 06:50:19;;;;;;;2.63;2.42;;;17.30;46.10;;;;;;5085919;28;20082;-54
2020/12/07 06:52:47;;;;;;;3.25;2.33;;;17.30;46.10;;;;;;5085324;28;20422;-54
2020/12/07 06:55:15;;;;;;;8.07;2.42;;;17.30;46.10;;;;;;5076826;28;20036;-52
2020/12/07 06:57:44;;;;;;;2.35;1.75;;;17.30;46.10;;;;;;5071083;28;20045;-55
2020/12/07 07:00:14;;;;;;;2.72;2.53;;;17.30;46.70;;;;;;5068440;28;20685;-51
2020/12/07 07:02:42;;;;;;;5.40;3.10;;;17.30;46.00;;;;;;5070052;28;20052;-54
2020/12/07 07:05:10;;;;;;;3.92;2.03;;;17.30;46.00;;;;;;5069585;28;20028;-53
2020/12/07 07:07:38;;;;;;;2.83;2.33;;;17.30;46.10;;;;;;5071519;28;20051;-52
2020/12/07 07:10:07;;;;;;;3.92;2.50;;;17.30;46.10;;;;;;5069678;28;20122;-53
2020/12/07 07:12:34;;;;;;;2.88;2.45;;;17.30;46.10;;;;;;5074132;28;20036;-52
2020/12/07 07:15:01;;;;;;;2.55;2.35;;;17.30;46.10;;;;;;5068080;28;20530;-53
2020/12/07 07:17:32;;;;;;;5.38;2.47;;;17.30;46.10;;;;;;5083692;28;20052;-50
2020/12/07 07:20:01;;;;;;;3.50;2.75;;;17.30;46.00;;;;;;5069304;28;20047;-54
2020/12/07 07:22:28;;;;;;;3.83;2.72;;;17.30;46.00;;;;;;5079989;28;20123;-54
2020/12/07 07:28:03;;;;;;;2.72;2.22;;;17.30;45.90;;;;;;5076713;28;20048;-53
2020/12/07 07:30:31;;;;;;;4.22;2.75;;;17.30;45.90;;;;;;5080133;28;20076;-56
2020/12/07 07:32:58;;;;;;;3.00;2.65;;;17.30;45.90;;;;;;5080747;28;20056;-53
2020/12/07 07:35:27;;;;;;;3.13;2.60;;;17.30;45.90;;;;;;5082416;28;20044;-56
2020/12/07 07:37:53;;;;;;;3.17;2.92;;;17.30;45.90;;;;;;5082795;28;20089;-50
2020/12/07 07:40:22;;;;;;;7.78;3.30;;;17.30;45.90;;;;;;5075238;28;20049;-52
2020/12/07 07:42:50;;;;;;;4.00;2.95;;;17.30;45.80;;;;;;5072051;28;20149;-51
2020/12/07 07:45:19;;;;;;;5.53;4.38;;;17.40;46.00;;;;;;5071886;28;20351;-50
2020/12/07 07:47:55;;;;;;;7.93;4.15;;;17.40;45.90;;;;;;5080579;28;20079;-50
2020/12/07 07:50:51;;;;;;;12.57;5.15;;;17.30;45.90;;;;;;5078313;28;20927;-52
2020/12/07 07:54:07;;;;;;;6.82;5.03;;;17.30;45.90;;;;;;5082853;28;20075;-57
2020/12/07 08:16:15;;;;;;;12.75;7.47;;;17.20;46.30;;;;;;5015470;28;20149;-53
2020/12/07 08:18:42;;;;;;;18.20;7.63;;;17.30;46.50;;;;;;5009090;28;20065;-50
2020/12/07 08:21:10;;;;;;;8.75;6.15;;;17.30;46.80;;;;;;5019573;28;20137;-51
2020/12/07 08:23:38;;;;;;;9.82;5.45;;;17.20;47.00;;;;;;5021773;28;20089;-55
2020/12/07 08:26:05;;;;;;;11.15;6.32;;;17.30;47.20;;;;;;5020935;28;20050;-57
2020/12/07 08:28:33;;;;;;;13.85;6.68;;;17.30;47.20;;;;;;5004383;28;20049;-53
2020/12/07 08:31:05;;;;;;;16.17;7.05;;;17.30;47.30;;;;;;5013682;28;20041;-56
2020/12/07 08:33:34;;;;;;;11.90;5.80;;;17.40;47.40;;;;;;5038456;28;20854;-56
2020/12/07 08:36:01;;;;;;;10.18;6.40;;;17.40;47.40;;;;;;5072323;28;20068;-58
2020/12/07 08:38:30;;;;;;;9.40;5.65;;;17.40;47.40;;;;;;5072055;28;20041;-49
2020/12/07 08:41:08;;;;;;;9.48;6.68;;;17.40;47.40;;;;;;5072050;28;20041;-54
2020/12/07 08:43:35;;;;;;;9.15;6.07;;;17.50;47.30;;;;;;5076182;28;20074;-51
2020/12/07 08:46:02;;;;;;;12.43;6.13;;;17.50;47.20;;;;;;5074223;28;20150;-52
2020/12/07 08:48:29;;;;;;;9.75;6.32;;;17.50;47.90;;;;;;5080474;28;20503;-54
2020/12/07 08:50:56;;;;;;;12.45;6.63;;;17.60;47.40;;;;;;5081278;28;20048;-61
2020/12/07 08:53:23;;;;;;;8.95;5.43;;;17.60;47.40;;;;;;5082242;28;20101;-55
2020/12/07 08:55:50;;;;;;;22.02;6.22;;;17.60;47.30;;;;;;5072030;28;20040;-52
2020/12/07 08:58:17;;;;;;;14.38;6.68;;;17.70;47.20;;;;;;5082454;28;20048;-50
2020/12/07 09:00:44;;;;;;;14.38;5.78;;;17.70;47.30;;;;;;5079144;28;20890;-49
2020/12/07 09:03:11;;;;;;;11.45;5.40;;;17.70;47.20;;;;;;5083359;28;20056;-51
2020/12/07 09:05:38;;;;;;;13.00;6.00;;;17.70;47.10;;;;;;5077675;28;20051;-50
2020/12/07 09:08:06;;;;;;;12.02;7.10;;;17.70;47.10;;;;;;5085477;28;20044;-57
2020/12/07 09:10:33;;;;;;;9.20;6.22;;;17.80;47.10;;;;;;5080133;28;20071;-53
2020/12/07 09:13:00;;;;;;;8.65;6.18;;;17.80;47.10;;;;;;5080282;28;20044;-50
2020/12/07 09:15:28;;;;;;;10.15;6.10;;;17.80;47.10;;;;;;5078916;28;20048;-50
2020/12/07 09:17:55;;;;;;;10.80;6.38;;;17.80;46.90;;;;;;5085431;28;20053;-54
2020/12/07 09:20:22;;;;;;;10.27;5.95;;;17.80;47.00;;;;;;5086239;28;20047;-56
2020/12/07 09:22:48;;;;;;;12.55;6.57;;;17.90;47.10;;;;;;5082890;28;20090;-53
2020/12/07 09:25:15;;;;;;;10.13;5.82;;;17.90;47.00;;;;;;5082089;28;20049;-54
2020/12/07 09:27:42;;;;;;;9.63;5.85;;;18.00;47.00;;;;;;5082876;28;20527;-51
2020/12/07 09:30:09;;;;;;;11.85;6.70;;;17.90;46.80;;;;;;5082107;28;20449;-52
2020/12/07 09:32:37;;;;;;;10.45;6.20;;;18.00;46.90;;;;;;5084459;28;20052;-54
2020/12/07 09:35:06;;;;;;;12.75;6.28;;;18.00;46.90;;;;;;5090360;28;20040;-50
2020/12/07 09:37:32;;;;;;;10.68;5.57;;;18.00;46.80;;;;;;5081187;28;20052;-51
2020/12/07 09:39:59;;;;;;;10.50;7.32;;;18.00;46.90;;;;;;5083186;28;20036;-51
2020/12/07 09:42:26;;;;;;;14.15;6.57;;;18.00;46.70;;;;;;5081342;28;20044;-56
2020/12/07 09:44:53;;;;;;;12.25;6.03;;;18.10;46.80;;;;;;5081026;28;20402;-60
2020/12/07 09:47:19;;;;;;;11.73;6.85;;;18.10;46.70;;;;;;5076423;28;20550;-56
2020/12/07 09:49:47;;;;;;;8.45;6.10;;;18.10;46.60;;;;;;5086534;28;20055;-53
2020/12/07 09:52:14;;;;;;;15.27;7.55;;;18.10;46.70;;;;;;5076135;28;20052;-50
2020/12/07 09:54:40;;;;;;;7.43;6.05;;;18.10;46.50;;;;;;5082623;28;20036;-51
2020/12/07 09:57:07;;;;;;;10.88;6.55;;;18.20;46.70;;;;;;5082222;28;20051;-50
2020/12/07 09:59:35;;;;;;;10.93;7.18;;;18.20;46.50;;;;;;5081264;28;20506;-53
2020/12/07 10:02:02;;;;;;;13.25;6.20;;;18.20;46.50;;;;;;5080057;28;20086;-53
2020/12/07 10:04:29;;;;;;;10.60;6.28;;;18.20;46.40;;;;;;5072989;28;20036;-51
2020/12/07 10:06:56;;;;;;;9.40;6.18;;;18.30;46.40;;;;;;5073915;28;20044;-52
2020/12/07 10:09:23;;;;;;;9.75;6.47;;;18.20;46.40;;;;;;5073742;28;20496;-56
2020/12/07 10:11:50;;;;;;;9.32;6.53;;;18.30;46.40;;;;;;5080075;28;20048;-51
2020/12/07 10:14:17;;;;;;;8.40;6.68;;;18.30;46.30;;;;;;5077679;28;20068;-57
2020/12/07 10:16:44;;;;;;;12.68;6.55;;;18.30;46.30;;;;;;5070708;28;20082;-50
2020/12/07 10:19:11;;;;;;;11.45;5.43;;;18.30;46.10;;;;;;5079670;28;20155;-52
2020/12/07 10:21:38;;;;;;;11.98;6.70;;;18.30;46.20;;;;;;5074954;28;20102;-60
2020/12/07 10:24:05;;;;;;;9.95;6.10;;;18.30;46.10;;;;;;5083577;28;20135;-53
2020/12/07 10:26:32;;;;;;;9.15;5.78;;;18.40;46.10;;;;;;5063760;28;20044;-51
2020/12/07 10:28:59;;;;;;;11.15;6.25;;;18.40;46.10;;;;;;5082308;28;20048;-55
2020/12/07 10:31:25;;;;;;;8.80;6.20;;;18.40;46.60;;;;;;5076339;28;20044;-51
2020/12/07 10:33:53;;;;;;;11.48;6.00;;;18.40;46.20;;;;;;5077424;28;20063;-52
2020/12/07 10:36:21;;;;;;;12.40;6.40;;;18.40;46.10;;;;;;5080779;28;20051;-52
2020/12/07 10:38:48;;;;;;;9.43;5.55;;;18.40;46.00;;;;;;5079622;28;20820;-51
2020/12/07 10:41:16;;;;;;;11.15;6.05;;;18.40;46.00;;;;;;5079830;28;20086;-53
2020/12/07 10:43:43;;;;;;;8.65;5.53;;;18.40;45.90;;;;;;5080952;28;20097;-53
2020/12/07 10:46:12;;;;;;;14.88;6.30;;;18.50;45.90;;;;;;5072967;28;20109;-50
2020/12/07 10:48:39;;;;;;;9.93;5.90;;;18.50;45.80;;;;;;5072614;28;20090;-52
2020/12/07 10:51:06;;;;;;;14.90;6.07;;;18.50;45.80;;;;;;5078320;28;20421;-52
2020/12/07 10:53:33;;;;;;;6.28;4.32;;;18.50;45.80;;;;;;5086002;28;20147;-53
2020/12/07 10:55:59;;;;;;;8.73;4.53;;;18.50;45.80;;;;;;5061103;28;20093;-56
2020/12/07 10:58:27;;;;;;;11.00;5.28;;;18.50;45.80;;;;;;5079220;28;20424;-53
2020/12/07 11:00:53;;;;;;;9.95;5.32;;;18.60;45.80;;;;;;5076022;28;20101;-51
2020/12/07 11:03:21;;;;;;;7.55;5.03;;;18.60;45.90;;;;;;5076994;28;20044;-55
2020/12/07 11:05:49;;;;;;;7.93;6.32;;;18.60;45.90;;;;;;5080112;28;20443;-57
2020/12/07 11:08:19;;;;;;;10.25;5.07;;;18.60;45.80;;;;;;5080264;28;20104;-57
2020/12/07 11:10:46;;;;;;;15.13;4.85;;;18.60;45.90;;;;;;5076792;28;20044;-55
2020/12/07 11:13:26;;;;;;;5.75;3.88;;;18.60;45.90;;;;;;5078346;28;20040;-55
2020/12/07 11:15:58;;;;;;;8.32;3.92;;;18.60;45.90;;;;;;5075243;28;20066;-54
2020/12/07 11:18:26;;;;;;;6.53;4.07;;;18.60;45.70;;;;;;5076160;28;20481;-55
2020/12/07 11:20:53;;;;;;;5.05;3.55;;;18.60;45.80;;;;;;5081237;28;20052;-55
2020/12/07 11:23:19;;;;;;;8.50;5.00;;;18.60;45.70;;;;;;5084758;28;20127;-54
2020/12/07 11:25:46;;;;;;;6.57;4.35;;;18.70;45.70;;;;;;5087745;28;20048;-53
2020/12/07 11:28:12;;;;;;;9.38;4.97;;;18.60;45.90;;;;;;5084150;28;20035;-54
2020/12/07 11:30:39;;;;;;;8.55;4.13;;;18.60;45.80;;;;;;5084828;28;20052;-53
2020/12/07 11:33:07;;;;;;;7.18;4.03;;;18.60;45.90;;;;;;5085948;28;20051;-51
2020/12/07 11:35:33;;;;;;;8.88;4.00;;;18.70;46.00;;;;;;5085152;28;20044;-52
2020/12/07 11:38:05;;;;;;;6.70;4.65;;;18.60;45.90;;;;;;5075708;28;20058;-51
2020/12/07 11:40:52;;;;;;;8.50;3.55;;;18.70;46.10;;;;;;5075321;28;20206;-53
2020/12/07 11:43:27;;;;;;;7.47;4.53;;;18.60;46.00;;;;;;5073590;28;20057;-55
2020/12/07 11:45:54;;;;;;;9.38;4.15;;;18.60;46.10;;;;;;5072812;28;20060;-56
2020/12/07 11:48:22;;;;;;;5.70;3.78;;;18.70;46.20;;;;;;5072071;28;20056;-51
2020/12/07 11:50:48;;;;;;;4.88;3.80;;;18.70;46.20;;;;;;5085057;28;20450;-53
2020/12/07 11:53:15;;;;;;;5.32;3.53;;;18.70;46.30;;;;;;5084576;28;20055;-50
2020/12/07 11:55:44;;;;;;;8.02;3.10;;;18.70;46.10;;;;;;5073343;28;20106;-53
2020/12/07 11:58:11;;;;;;;7.80;3.80;;;18.70;46.20;;;;;;5078837;28;20067;-51
2020/12/07 12:00:38;;;;;;;5.90;2.97;;;18.70;46.10;;;;;;5081671;28;20121;-52
2020/12/07 12:03:05;;;;;;;6.47;4.30;;;18.70;46.10;;;;;;5072634;28;20127;-52
2020/12/07 12:05:33;;;;;;;7.30;3.55;;;18.70;46.20;;;;;;5083632;28;20124;-53
2020/12/07 12:07:59;;;;;;;5.03;3.42;;;18.70;46.10;;;;;;5079431;28;20123;-52
2020/12/07 12:10:26;;;;;;;5.82;2.10;;;18.70;46.20;;;;;;5073921;28;20072;-58
2020/12/07 12:12:52;;;;;;;6.93;3.33;;;18.70;46.10;;;;;;5073158;28;20446;-55
2020/12/07 12:15:19;;;;;;;9.10;2.58;;;18.70;46.00;;;;;;5072959;28;20044;-54
2020/12/07 12:17:57;;;;;;;6.85;3.72;;;18.70;46.10;;;;;;5071875;28;20393;-55
2020/12/07 12:20:24;;;;;;;4.13;2.83;;;18.70;46.00;;;;;;5070612;28;20121;-51
2020/12/07 12:22:51;;;;;;;7.75;3.65;;;18.70;46.10;;;;;;5073165;28;20126;-52
2020/12/07 12:25:18;;;;;;;3.20;2.80;;;18.70;45.90;;;;;;5062779;28;20059;-53
2020/12/07 12:27:45;;;;;;;6.47;2.78;;;18.80;46.00;;;;;;5081579;28;20051;-50
2020/12/07 12:30:11;;;;;;;3.47;2.92;;;18.80;46.00;;;;;;5081311;28;20044;-50
2020/12/07 12:32:38;;;;;;;2.65;2.45;;;18.80;45.80;;;;;;5088667;28;20093;-58
2020/12/07 12:35:17;;;;;;;7.13;3.13;;;18.80;45.80;;;;;;5074274;28;20040;-54
2020/12/07 12:37:44;;;;;;;3.80;2.65;;;18.80;45.80;;;;;;5073649;28;20535;-54
2020/12/07 12:40:11;;;;;;;5.05;3.03;;;18.80;45.80;;;;;;5076562;28;20058;-54
2020/12/07 12:42:38;;;;;;;5.15;3.03;;;18.80;45.90;;;;;;5077635;28;20095;-54
2020/12/07 12:45:04;;;;;;;9.73;3.20;;;18.80;45.70;;;;;;5088473;28;20507;-54
2020/12/07 12:47:31;;;;;;;4.05;2.70;;;18.80;45.80;;;;;;5072750;28;20101;-54
2020/12/07 12:49:58;;;;;;;5.50;3.33;;;18.80;45.80;;;;;;5076472;28;20072;-55
2020/12/07 12:52:25;;;;;;;3.40;2.97;;;18.80;45.80;;;;;;5076540;28;20071;-56
2020/12/07 12:55:18;;;;;;;2.38;2.15;;;18.80;45.90;;;;;;5079707;28;20468;-54
2020/12/07 12:57:45;;;;;;;3.45;3.15;;;18.90;45.70;;;;;;5082782;28;20140;-52
2020/12/07 13:00:12;;;;;;;3.75;2.78;;;18.90;45.80;;;;;;5076595;28;20036;-54
2020/12/07 13:02:38;;;;;;;5.35;2.33;;;18.90;45.80;;;;;;5072087;28;20040;-54
2020/12/07 13:05:05;;;;;;;3.63;2.38;;;18.80;45.80;;;;;;5076134;28;20044;-52
2020/12/07 13:07:32;;;;;;;2.83;2.60;;;18.90;45.90;;;;;;5084849;28;20469;-54
2020/12/07 13:09:58;;;;;;;5.72;3.17;;;18.90;45.60;;;;;;5084515;28;20044;-54
2020/12/07 13:12:26;;;;;;;6.53;2.55;;;18.90;45.70;;;;;;5085501;28;20457;-55
2020/12/07 13:14:53;;;;;;;5.28;2.92;;;18.90;45.80;;;;;;5073831;28;20125;-58